Saundersville, Massachusetts
Current Conditions -  °F | °C
As of 5:54 AM on Wednesday 26 Nov 2014 (Local Time) from KORH Reporting Station
Scattered Clouds Scattered Clouds  
Wind Chill: 33°   Ceiling: Unl
Heat Index: 39°   Visibility: 10mi
Dew Point: 26°   Wind: 9mph
Humidity: 60%   Direction: 330°NNW
Pressure: 30.15"   Gusts: NA
Location:  42.1762°N, 71.6944°W
Report Text: KORH 261054Z AUTO 33008KT 10SM SCT100 04/M03 A3015 RMK AO2 SLP218 T00391033
Loading
Personal Weather Stations






























Interactive Weather Map New forecast layout! Learn more

10-Day Weather Forecast

Advertisements
Track Severe Weather on mobile